Time;durP1;ratioP1;P1;durP2;ratioP2;P2;SDS_P1;SDS_P2;PMS_P1;PMS_P2;Temp;Humidity;BMP_temperature;BMP_pressure;BME280_temperature;BME280_humidity;BME280_pressure;Samples;Min_cycle;Max_cycle;Signal;HPM_P1;HPM_P2
2021/07/30 00:01:56;;;;;;;13.15;7.95;;;22.10;89.20;;;;;;5099346;28;20036;-71
2021/07/30 00:04:21;;;;;;;12.93;8.23;;;22.30;87.80;;;;;;5099701;28;20501;-71
2021/07/30 00:06:47;;;;;;;10.23;8.35;;;22.30;87.70;;;;;;5099425;28;20027;-71
2021/07/30 00:09:14;;;;;;;18.88;8.77;;;22.30;87.60;;;;;;5099830;28;20028;-72
2021/07/30 00:11:41;;;;;;;14.30;8.23;;;22.30;87.30;;;;;;5099333;28;20028;-73
2021/07/30 00:14:07;;;;;;;11.05;7.97;;;22.20;86.90;;;;;;5099312;28;20028;-72
2021/07/30 00:16:33;;;;;;;11.63;8.13;;;22.30;86.40;;;;;;5099276;28;20476;-71
2021/07/30 00:18:58;;;;;;;9.52;7.47;;;22.50;85.90;;;;;;5099458;28;20028;-71
2021/07/30 00:21:24;;;;;;;9.05;8.10;;;22.60;85.80;;;;;;5099186;28;20326;-72
2021/07/30 00:23:50;;;;;;;9.82;7.78;;;22.50;85.30;;;;;;5099086;28;20024;-71
2021/07/30 00:26:15;;;;;;;9.95;8.23;;;22.70;84.70;;;;;;5099071;28;20026;-71
2021/07/30 00:28:41;;;;;;;9.65;7.90;;;22.80;84.10;;;;;;5098975;28;20066;-71
2021/07/30 00:31:06;;;;;;;12.30;8.30;;;22.70;84.30;;;;;;5098969;28;20078;-72
2021/07/30 00:33:32;;;;;;;8.60;7.72;;;22.90;84.20;;;;;;5099284;28;20039;-72
2021/07/30 00:35:58;;;;;;;13.95;7.55;;;22.90;83.70;;;;;;5098892;28;20074;-72
2021/07/30 00:38:24;;;;;;;13.73;7.70;;;23.00;83.60;;;;;;5098752;28;20187;-72
2021/07/30 00:40:50;;;;;;;10.80;8.05;;;23.00;83.20;;;;;;5099111;28;20059;-71
2021/07/30 00:43:15;;;;;;;11.32;7.35;;;23.10;83.20;;;;;;5099028;28;20081;-71
2021/07/30 00:45:42;;;;;;;9.05;7.30;;;23.10;83.10;;;;;;5098982;28;20016;-71
2021/07/30 00:48:08;;;;;;;9.75;7.53;;;23.10;83.50;;;;;;5098689;28;20024;-71
2021/07/30 00:50:34;;;;;;;8.93;7.57;;;22.90;83.80;;;;;;5098822;28;20027;-71
2021/07/30 00:53:00;;;;;;;8.93;7.57;;;23.00;83.40;;;;;;5098583;28;20442;-70
2021/07/30 00:55:27;;;;;;;15.55;7.88;;;22.90;83.90;;;;;;5098829;28;20020;-71
2021/07/30 00:57:53;;;;;;;11.52;7.63;;;22.90;83.90;;;;;;5098445;28;20419;-71
2021/07/30 01:00:22;;;;;;;11.50;7.32;;;22.70;84.80;;;;;;5098669;28;20050;-70
2021/07/30 01:02:48;;;;;;;11.20;7.82;;;22.70;85.70;;;;;;5098664;28;20036;-71
2021/07/30 01:05:14;;;;;;;9.00;7.50;;;22.50;85.90;;;;;;5098581;28;20020;-71
2021/07/30 01:07:40;;;;;;;14.20;7.97;;;22.40;86.30;;;;;;5098560;28;20323;-71
2021/07/30 01:10:06;;;;;;;11.30;8.68;;;22.40;86.70;;;;;;5098386;28;20099;-71
2021/07/30 01:12:32;;;;;;;11.57;8.80;;;22.40;86.80;;;;;;5098021;28;20081;-71
2021/07/30 01:14:57;;;;;;;9.65;8.65;;;22.30;87.10;;;;;;5097780;28;20323;-72
2021/07/30 01:17:26;;;;;;;13.75;8.68;;;22.10;87.40;;;;;;5098068;28;20111;-71
2021/07/30 01:19:53;;;;;;;10.70;8.68;;;22.10;88.00;;;;;;5097948;28;20028;-71
2021/07/30 01:22:29;;;;;;;10.88;8.45;;;22.00;87.90;;;;;;5098017;28;20032;-71
2021/07/30 01:24:55;;;;;;;13.25;8.35;;;22.10;88.40;;;;;;5097876;28;20070;-72
2021/07/30 01:27:21;;;;;;;11.60;8.38;;;22.10;88.70;;;;;;5098188;28;20028;-72
2021/07/30 01:29:47;;;;;;;15.30;9.52;;;22.00;88.30;;;;;;5098092;28;20016;-70
2021/07/30 01:32:14;;;;;;;11.75;9.55;;;22.00;88.40;;;;;;5098134;28;20401;-72
2021/07/30 01:34:39;;;;;;;13.85;9.25;;;22.00;88.40;;;;;;5097784;28;20403;-71
2021/07/30 01:37:05;;;;;;;14.60;9.30;;;22.00;88.80;;;;;;5097729;28;20078;-71
2021/07/30 01:39:31;;;;;;;11.20;9.52;;;21.90;89.10;;;;;;5097634;28;20048;-72
2021/07/30 01:41:57;;;;;;;13.18;8.68;;;21.90;89.10;;;;;;5097675;28;20077;-71
2021/07/30 01:44:23;;;;;;;11.30;8.93;;;21.80;89.30;;;;;;5097824;28;20035;-72
2021/07/30 01:46:48;;;;;;;11.00;8.43;;;21.80;89.80;;;;;;5097528;28;20031;-72
2021/07/30 01:49:14;;;;;;;11.07;8.60;;;21.90;89.90;;;;;;5097738;28;20085;-72
2021/07/30 01:51:40;;;;;;;11.77;9.23;;;21.90;89.70;;;;;;5097770;28;20020;-72
2021/07/30 01:54:06;;;;;;;13.65;9.10;;;21.90;89.60;;;;;;5097702;28;20364;-72
2021/07/30 01:56:32;;;;;;;11.88;8.60;;;21.80;89.80;;;;;;5097686;28;20077;-71
2021/07/30 01:58:58;;;;;;;15.20;9.00;;;21.90;89.70;;;;;;5097279;28;20028;-71
2021/07/30 02:01:24;;;;;;;11.88;8.45;;;22.00;89.80;;;;;;5097258;28;20054;-71
2021/07/30 02:03:49;;;;;;;11.80;8.80;;;22.00;89.90;;;;;;5097540;28;20089;-72
2021/07/30 02:06:15;;;;;;;12.43;9.02;;;22.00;90.10;;;;;;5097516;28;20292;-71
2021/07/30 02:08:43;;;;;;;10.75;8.73;;;22.10;89.80;;;;;;5097395;28;20079;-72
2021/07/30 02:11:13;;;;;;;10.52;8.27;;;22.10;90.00;;;;;;5097437;28;20032;-72
2021/07/30 02:16:24;;;;;;;14.00;8.85;;;22.30;90.20;;;;;;5097407;28;20085;-71
2021/07/30 02:18:50;;;;;;;15.80;8.82;;;22.30;90.60;;;;;;5096985;28;20020;-72
2021/07/30 02:21:16;;;;;;;13.68;8.70;;;22.30;90.40;;;;;;5097299;28;20028;-72
2021/07/30 02:23:43;;;;;;;9.65;8.68;;;22.30;90.40;;;;;;5097277;28;20037;-71
2021/07/30 02:26:08;;;;;;;12.20;8.70;;;22.40;90.30;;;;;;5096654;28;20031;-70
2021/07/30 02:28:34;;;;;;;10.32;8.30;;;22.50;89.20;;;;;;5096862;28;20024;-72
2021/07/30 02:31:00;;;;;;;13.02;9.23;;;22.50;88.60;;;;;;5096864;28;20031;-72
2021/07/30 02:33:25;;;;;;;17.30;8.95;;;22.60;88.30;;;;;;5096887;28;20107;-72
2021/07/30 02:35:51;;;;;;;10.70;8.20;;;22.60;88.10;;;;;;5096794;28;20032;-72
2021/07/30 02:38:16;;;;;;;10.38;8.27;;;22.70;87.20;;;;;;5096868;28;20032;-73
2021/07/30 02:40:42;;;;;;;10.80;8.02;;;22.70;87.30;;;;;;5097108;28;20043;-72
2021/07/30 02:43:08;;;;;;;9.88;8.35;;;22.70;87.30;;;;;;5097040;28;20028;-71
2021/07/30 02:45:33;;;;;;;12.68;7.82;;;22.70;87.00;;;;;;5097032;28;20024;-71
2021/07/30 02:47:59;;;;;;;8.75;7.85;;;22.70;87.40;;;;;;5097018;28;20374;-71
2021/07/30 02:50:25;;;;;;;10.38;8.27;;;22.50;87.00;;;;;;5096659;28;20370;-71
2021/07/30 02:52:50;;;;;;;12.38;8.02;;;22.40;87.30;;;;;;5097021;28;20034;-71
2021/07/30 02:55:16;;;;;;;10.82;8.18;;;22.40;87.10;;;;;;5096645;28;20028;-70
2021/07/30 02:57:45;;;;;;;14.07;8.32;;;22.20;87.50;;;;;;5096960;28;20031;-70
2021/07/30 03:00:12;;;;;;;8.65;7.85;;;22.00;88.60;;;;;;5096488;28;20036;-71
2021/07/30 03:02:38;;;;;;;13.13;8.10;;;21.90;89.20;;;;;;5096628;28;20023;-71
2021/07/30 03:05:04;;;;;;;17.13;8.43;;;21.90;88.40;;;;;;5096741;28;20025;-71
2021/07/30 03:07:29;;;;;;;14.52;8.90;;;21.90;88.40;;;;;;5096735;28;20352;-71
2021/07/30 03:09:55;;;;;;;12.73;8.45;;;22.00;87.00;;;;;;5096721;28;20078;-71
2021/07/30 03:12:21;;;;;;;13.88;10.57;;;22.00;86.70;;;;;;5096861;28;20430;-71
2021/07/30 03:14:47;;;;;;;10.85;8.60;;;22.30;85.70;;;;;;5096468;28;20039;-71
2021/07/30 03:17:12;;;;;;;15.90;9.35;;;22.10;85.40;;;;;;5096449;28;20039;-71
2021/07/30 03:19:38;;;;;;;11.52;8.35;;;22.30;85.30;;;;;;5096658;28;20034;-71
2021/07/30 03:22:04;;;;;;;12.18;8.80;;;22.30;85.20;;;;;;5096458;28;20343;-72
2021/07/30 03:24:30;;;;;;;19.75;9.45;;;22.30;84.70;;;;;;5096603;28;20107;-70
2021/07/30 03:26:55;;;;;;;11.27;8.48;;;22.40;84.50;;;;;;5096374;28;20390;-71
2021/07/30 03:29:21;;;;;;;13.15;9.75;;;22.40;84.30;;;;;;5096548;28;20032;-71
2021/07/30 03:31:48;;;;;;;15.35;9.73;;;22.40;84.20;;;;;;5096866;28;20027;-71
2021/07/30 03:34:15;;;;;;;13.98;9.52;;;22.50;84.10;;;;;;5096575;28;20032;-71
2021/07/30 03:36:41;;;;;;;12.48;9.02;;;22.50;84.20;;;;;;5097469;28;20039;-71
2021/07/30 03:39:07;;;;;;;12.95;8.75;;;22.50;84.20;;;;;;5099670;28;20052;-71
2021/07/30 03:41:33;;;;;;;15.00;9.68;;;22.50;84.40;;;;;;5100234;28;20024;-70
2021/07/30 03:43:59;;;;;;;12.80;10.13;;;22.50;84.30;;;;;;5099862;28;20086;-71
2021/07/30 03:46:24;;;;;;;16.42;9.43;;;22.50;84.40;;;;;;5100182;28;20016;-71
2021/07/30 03:48:50;;;;;;;11.60;9.10;;;22.50;84.40;;;;;;5099778;28;20095;-71
2021/07/30 03:51:15;;;;;;;15.07;9.60;;;22.50;84.30;;;;;;5100078;28;20103;-71
2021/07/30 03:53:41;;;;;;;11.23;9.57;;;22.50;84.40;;;;;;5099784;28;20035;-72
2021/07/30 03:56:14;;;;;;;10.45;8.38;;;22.50;84.10;;;;;;5099991;28;20024;-71
2021/07/30 03:58:42;;;;;;;14.50;9.30;;;22.50;83.60;;;;;;5099895;28;20085;-71
2021/07/30 04:01:08;;;;;;;10.48;8.40;;;22.60;83.40;;;;;;5099880;28;20353;-71
2021/07/30 04:03:34;;;;;;;20.17;9.55;;;22.70;83.40;;;;;;5099849;28;20107;-71
2021/07/30 04:06:03;;;;;;;10.13;8.43;;;22.70;83.20;;;;;;5099825;28;20021;-71
2021/07/30 04:08:29;;;;;;;10.35;8.13;;;22.70;83.20;;;;;;5099636;28;20032;-71
2021/07/30 04:10:55;;;;;;;12.63;8.32;;;22.80;83.30;;;;;;5099705;28;20090;-71
2021/07/30 04:13:21;;;;;;;11.60;8.48;;;22.70;83.40;;;;;;5099703;28;20028;-71
2021/07/30 04:15:46;;;;;;;11.95;8.30;;;22.70;83.40;;;;;;5099342;28;20433;-71
2021/07/30 04:18:12;;;;;;;10.20;8.63;;;22.70;83.70;;;;;;5099468;28;20119;-71
2021/07/30 04:20:39;;;;;;;11.60;8.57;;;22.60;84.00;;;;;;5099214;28;20077;-71
2021/07/30 04:23:04;;;;;;;10.15;8.70;;;22.50;83.90;;;;;;5099441;28;20055;-71
2021/07/30 04:25:30;;;;;;;15.93;8.95;;;22.50;84.00;;;;;;5099095;28;20047;-71
2021/07/30 04:27:56;;;;;;;11.82;9.00;;;22.60;84.20;;;;;;5099385;28;20110;-71
2021/07/30 04:30:23;;;;;;;11.68;9.13;;;22.60;84.40;;;;;;5098975;28;20020;-71
2021/07/30 04:32:49;;;;;;;11.10;8.65;;;22.60;84.00;;;;;;5099035;28;20032;-71
2021/07/30 04:35:15;;;;;;;13.57;9.07;;;22.60;83.70;;;;;;5099247;28;20056;-71
2021/07/30 04:37:40;;;;;;;11.90;8.93;;;22.70;83.50;;;;;;5099210;28;20032;-71
2021/07/30 04:40:06;;;;;;;9.77;8.77;;;22.80;83.50;;;;;;5098596;28;20373;-71
2021/07/30 04:42:32;;;;;;;9.63;8.70;;;22.70;83.60;;;;;;5099175;28;20035;-71
2021/07/30 04:44:58;;;;;;;13.63;8.95;;;22.80;83.70;;;;;;5098678;28;20119;-71
2021/07/30 04:47:23;;;;;;;11.35;8.82;;;22.90;83.70;;;;;;5098569;28;20036;-71
2021/07/30 04:49:49;;;;;;;9.82;8.50;;;22.80;83.30;;;;;;5098910;28;20027;-71
2021/07/30 04:52:15;;;;;;;14.70;8.40;;;22.90;84.40;;;;;;5098933;28;20073;-71
2021/07/30 04:54:41;;;;;;;12.38;8.43;;;22.90;84.70;;;;;;5098554;28;20020;-71
2021/07/30 04:57:09;;;;;;;14.93;9.15;;;22.90;84.80;;;;;;5098807;28;20073;-71
2021/07/30 04:59:35;;;;;;;13.88;8.82;;;23.00;85.90;;;;;;5098727;28;20103;-72
2021/07/30 05:02:02;;;;;;;9.77;8.07;;;22.90;86.20;;;;;;5098759;28;20374;-72
2021/07/30 05:04:28;;;;;;;9.88;8.35;;;23.00;86.70;;;;;;5098592;28;20028;-71
2021/07/30 05:06:54;;;;;;;14.90;9.05;;;22.90;87.20;;;;;;5098650;28;20048;-71
2021/07/30 05:09:19;;;;;;;11.68;8.82;;;23.10;87.10;;;;;;5098692;28;20028;-71
2021/07/30 05:11:45;;;;;;;13.55;9.63;;;23.00;87.10;;;;;;5098565;28;20311;-71
2021/07/30 05:14:11;;;;;;;11.93;8.65;;;23.10;87.50;;;;;;5098469;28;20315;-71
2021/07/30 05:16:36;;;;;;;10.85;8.95;;;23.10;89.10;;;;;;5098489;28;20032;-71
2021/07/30 05:19:02;;;;;;;14.50;9.63;;;23.20;89.20;;;;;;5098004;28;20084;-71
2021/07/30 05:21:28;;;;;;;9.50;8.50;;;23.30;88.70;;;;;;5098058;28;20084;-71
2021/07/30 05:23:53;;;;;;;10.70;8.70;;;23.30;88.60;;;;;;5098261;28;20032;-71
2021/07/30 05:26:19;;;;;;;10.93;8.77;;;23.40;87.80;;;;;;5098199;28;20032;-71
2021/07/30 05:28:45;;;;;;;10.65;8.48;;;23.50;87.10;;;;;;5097873;28;20031;-72
2021/07/30 05:31:15;;;;;;;10.93;9.70;;;23.40;87.00;;;;;;5098118;28;20032;-71
2021/07/30 05:33:42;;;;;;;12.65;9.73;;;23.50;85.00;;;;;;5097891;28;20032;-72
2021/07/30 05:36:08;;;;;;;12.63;9.27;;;23.50;84.90;;;;;;5098056;28;20101;-72
2021/07/30 05:38:34;;;;;;;11.32;9.63;;;23.70;84.20;;;;;;5097406;28;20046;-72
2021/07/30 05:41:00;;;;;;;13.23;8.70;;;;;;;;;;5098016;28;20028;-71
2021/07/30 05:43:25;;;;;;;16.08;9.93;;;23.90;83.20;;;;;;5097901;28;20319;-72
2021/07/30 05:45:52;;;;;;;13.60;9.82;;;23.90;82.50;;;;;;5097590;28;20020;-71
2021/07/30 05:48:18;;;;;;;12.45;10.95;;;24.10;82.00;;;;;;5097434;28;20070;-71
2021/07/30 05:50:48;;;;;;;11.73;10.35;;;24.10;83.70;;;;;;5097466;28;20020;-72
2021/07/30 05:53:13;;;;;;;14.20;10.63;;;23.90;82.60;;;;;;5097762;28;20028;-71
2021/07/30 05:55:39;;;;;;;12.70;9.38;;;23.90;83.70;;;;;;5097681;28;20028;-72
2021/07/30 05:58:05;;;;;;;11.05;9.70;;;24.00;83.70;;;;;;5097364;28;20035;-71
2021/07/30 06:00:31;;;;;;;14.25;9.40;;;;;;;;;;5096775;28;20045;-71
2021/07/30 06:02:56;;;;;;;9.75;8.77;;;24.10;83.60;;;;;;5097552;28;20028;-72
2021/07/30 06:05:22;;;;;;;13.95;9.23;;;24.30;82.10;;;;;;5097181;28;20032;-72
2021/07/30 06:07:47;;;;;;;11.18;8.93;;;24.30;81.80;;;;;;5097532;28;20044;-72
2021/07/30 06:10:13;;;;;;;13.45;9.60;;;24.40;81.00;;;;;;5097417;28;20304;-72
2021/07/30 06:12:39;;;;;;;10.90;9.57;;;24.40;81.60;;;;;;5097543;28;20108;-72
2021/07/30 06:15:05;;;;;;;13.98;8.70;;;24.40;80.70;;;;;;5097408;28;20024;-71
2021/07/30 06:17:31;;;;;;;18.02;9.68;;;24.50;80.70;;;;;;5097044;28;20481;-71
2021/07/30 06:19:56;;;;;;;14.63;9.57;;;24.50;81.20;;;;;;5097291;28;20032;-71
2021/07/30 06:22:22;;;;;;;10.38;8.43;;;24.50;81.30;;;;;;5097045;28;20032;-71
2021/07/30 06:24:48;;;;;;;14.85;9.88;;;24.50;80.80;;;;;;5097213;28;20021;-71
2021/07/30 06:27:15;;;;;;;10.65;9.10;;;;;;;;;;5097248;28;20024;-72
2021/07/30 06:29:41;;;;;;;13.15;9.63;;;24.80;80.00;;;;;;5097143;28;20024;-72
2021/07/30 06:32:07;;;;;;;13.93;9.00;;;24.80;80.50;;;;;;5097322;28;20353;-72
2021/07/30 06:34:34;;;;;;;11.05;8.85;;;25.10;80.70;;;;;;5097088;28;20024;-71
2021/07/30 06:36:59;;;;;;;10.80;8.85;;;25.10;81.20;;;;;;5097167;28;20354;-71
2021/07/30 06:39:25;;;;;;;9.45;7.90;;;26.00;78.80;;;;;;5096772;28;20071;-71
2021/07/30 06:41:51;;;;;;;11.02;8.43;;;26.10;78.90;;;;;;5096969;28;20036;-71
2021/07/30 06:44:17;;;;;;;8.93;7.38;;;26.80;76.80;;;;;;5096686;28;20031;-71
2021/07/30 06:46:43;;;;;;;9.05;7.00;;;27.50;75.60;;;;;;5096741;28;20028;-71
2021/07/30 06:49:09;;;;;;;13.13;7.57;;;28.50;71.70;;;;;;5096640;28;20043;-71
2021/07/30 06:51:35;;;;;;;9.70;7.55;;;28.50;72.10;;;;;;5096671;28;20055;-71
2021/07/30 06:54:02;;;;;;;13.38;7.47;;;29.00;72.70;;;;;;5097002;28;20028;-72
2021/07/30 06:56:28;;;;;;;11.18;6.32;;;29.30;70.50;;;;;;5096965;28;20024;-71
2021/07/30 06:58:54;;;;;;;8.38;6.80;;;29.80;69.40;;;;;;5096875;28;20028;-71
2021/07/30 07:01:20;;;;;;;12.90;6.75;;;30.00;67.80;;;;;;5096609;28;20427;-71
2021/07/30 07:03:46;;;;;;;9.65;7.43;;;30.20;67.30;;;;;;5096927;28;20055;-71
2021/07/30 07:06:14;;;;;;;9.32;6.40;;;30.60;66.70;;;;;;5096894;28;20376;-71
2021/07/30 07:08:40;;;;;;;10.80;6.70;;;30.70;66.10;;;;;;5096504;28;20319;-71
2021/07/30 07:11:06;;;;;;;15.27;6.45;;;30.70;66.30;;;;;;5096511;28;20028;-71
2021/07/30 07:13:31;;;;;;;7.38;6.43;;;30.80;66.10;;;;;;5100887;28;20020;-71
2021/07/30 07:15:57;;;;;;;8.55;6.57;;;31.00;66.20;;;;;;5100857;28;20050;-71
2021/07/30 07:18:24;;;;;;;8.20;6.13;;;31.30;67.00;;;;;;5100730;28;20020;-71
2021/07/30 07:20:56;;;;;;;10.48;5.40;;;31.50;64.80;;;;;;5100691;28;20028;-70
2021/07/30 07:23:22;;;;;;;10.38;6.18;;;31.50;66.00;;;;;;5100652;28;20219;-71
2021/07/30 07:25:47;;;;;;;6.38;5.57;;;31.60;66.10;;;;;;5100667;28;20032;-71
2021/07/30 07:28:13;;;;;;;8.52;5.88;;;31.80;66.00;;;;;;5100169;28;20288;-71
2021/07/30 07:30:39;;;;;;;11.23;6.10;;;32.20;65.80;;;;;;5100254;28;20107;-71
2021/07/30 07:33:04;;;;;;;8.43;6.03;;;32.30;64.20;;;;;;5100172;28;20055;-71
2021/07/30 07:35:30;;;;;;;8.77;5.82;;;32.40;63.70;;;;;;5100110;28;20081;-70
2021/07/30 07:38:03;;;;;;;7.90;6.05;;;32.40;62.90;;;;;;5100385;28;20069;-71
2021/07/30 07:40:29;;;;;;;7.07;6.00;;;32.30;62.90;;;;;;5099782;28;20058;-72
2021/07/30 07:42:56;;;;;;;7.53;5.30;;;32.30;63.20;;;;;;5099935;28;20016;-71
2021/07/30 07:45:22;;;;;;;7.05;5.40;;;32.30;64.00;;;;;;5100211;28;20036;-72
2021/07/30 07:47:48;;;;;;;6.07;5.45;;;32.30;62.90;;;;;;5100218;28;20020;-72
2021/07/30 07:50:14;;;;;;;10.95;5.72;;;32.60;62.10;;;;;;5100065;28;20472;-72
2021/07/30 07:52:39;;;;;;;7.10;5.78;;;32.70;62.20;;;;;;5099796;28;20024;-71
2021/07/30 07:55:07;;;;;;;8.60;5.50;;;32.60;61.40;;;;;;5099749;28;20032;-71
2021/07/30 07:57:33;;;;;;;7.70;6.07;;;32.70;62.50;;;;;;5099667;28;20024;-71
2021/07/30 07:59:59;;;;;;;7.65;5.88;;;32.90;60.70;;;;;;5099570;28;20035;-71
2021/07/30 08:02:25;;;;;;;10.18;5.85;;;32.70;60.80;;;;;;5099976;28;20051;-71
2021/07/30 08:04:50;;;;;;;7.38;5.60;;;32.50;61.50;;;;;;5099772;28;20024;-71
2021/07/30 08:07:17;;;;;;;8.30;5.82;;;32.10;62.00;;;;;;5099736;28;20395;-71
2021/07/30 08:09:44;;;;;;;10.85;5.93;;;32.40;61.70;;;;;;5099696;28;20039;-71
2021/07/30 08:12:10;;;;;;;7.47;5.88;;;32.80;61.40;;;;;;5099490;28;20035;-71
2021/07/30 08:14:38;;;;;;;8.25;5.60;;;32.90;60.10;;;;;;5099359;28;20028;-71
2021/07/30 08:17:03;;;;;;;9.35;6.25;;;33.00;61.10;;;;;;5099316;28;20032;-71
2021/07/30 08:19:33;;;;;;;6.70;5.68;;;32.70;60.40;;;;;;5099495;28;20038;-71
2021/07/30 08:21:59;;;;;;;7.25;5.28;;;32.70;61.90;;;;;;5099401;28;20028;-71
2021/07/30 08:24:25;;;;;;;9.98;6.20;;;32.90;62.90;;;;;;5099237;28;20035;-71
2021/07/30 08:26:50;;;;;;;8.65;5.60;;;33.00;61.00;;;;;;5099166;28;20032;-71
2021/07/30 08:29:16;;;;;;;7.15;6.15;;;33.10;61.60;;;;;;5098361;28;20036;-71
2021/07/30 08:31:42;;;;;;;8.88;5.93;;;33.20;60.20;;;;;;5099334;28;20323;-71
2021/07/30 08:34:10;;;;;;;8.70;6.30;;;33.30;60.60;;;;;;5098974;28;20024;-71
2021/07/30 08:36:36;;;;;;;8.52;6.25;;;33.30;60.50;;;;;;5099269;28;20349;-71
2021/07/30 08:39:02;;;;;;;10.23;6.22;;;33.30;60.90;;;;;;5098643;28;20186;-71
2021/07/30 08:41:27;;;;;;;7.55;5.70;;;33.30;63.20;;;;;;5099170;28;20103;-71
2021/07/30 08:43:54;;;;;;;7.85;6.03;;;33.80;62.30;;;;;;5099060;28;20028;-71
2021/07/30 08:46:26;;;;;;;8.48;6.40;;;34.00;60.00;;;;;;5099065;28;20020;-71
2021/07/30 08:48:53;;;;;;;11.13;7.05;;;34.00;59.80;;;;;;5098979;28;20028;-72
2021/07/30 08:51:20;;;;;;;9.90;7.03;;;34.00;59.70;;;;;;5098959;28;20108;-70
2021/07/30 08:53:46;;;;;;;9.23;6.72;;;33.90;59.10;;;;;;5098656;28;20103;-70
2021/07/30 08:56:13;;;;;;;8.38;6.30;;;33.90;59.50;;;;;;5098901;28;20027;-70
2021/07/30 08:58:39;;;;;;;13.13;7.63;;;33.80;62.50;;;;;;5098797;28;20342;-70
2021/07/30 09:01:05;;;;;;;10.02;7.32;;;33.90;59.10;;;;;;5098803;28;20310;-72
2021/07/30 09:03:42;;;;;;;8.50;6.60;;;34.20;59.50;;;;;;5098724;28;20356;-70
2021/07/30 09:06:20;;;;;;;10.68;6.15;;;34.30;59.60;;;;;;5098737;28;20074;-71
2021/07/30 09:09:01;;;;;;;9.68;6.57;;;34.50;61.50;;;;;;5098581;28;20035;-72
2021/07/30 09:11:38;;;;;;;8.13;6.50;;;34.80;59.80;;;;;;5098272;28;20059;-71
2021/07/30 09:14:09;;;;;;;12.63;6.07;;;34.70;59.20;;;;;;5098580;28;20028;-71
2021/07/30 09:16:48;;;;;;;16.52;7.60;;;34.80;58.20;;;;;;5098522;28;20028;-72
2021/07/30 09:19:14;;;;;;;7.90;7.10;;;35.20;58.30;;;;;;5098328;28;20103;-70
2021/07/30 09:21:39;;;;;;;13.20;7.60;;;35.20;56.10;;;;;;5098394;28;20487;-71
2021/07/30 09:24:31;;;;;;;12.40;6.90;;;35.30;55.50;;;;;;5098268;28;20032;-71
2021/07/30 09:27:00;;;;;;;10.18;6.68;;;35.40;58.90;;;;;;5098330;28;20020;-71
2021/07/30 09:29:29;;;;;;;9.75;6.68;;;35.40;57.90;;;;;;5098174;28;20028;-70
2021/07/30 09:31:59;;;;;;;7.88;7.07;;;35.30;58.50;;;;;;5098194;28;20038;-71
2021/07/30 09:34:36;;;;;;;10.90;7.72;;;35.30;57.90;;;;;;5096971;28;20512;-71
2021/07/30 09:37:07;;;;;;;13.70;7.50;;;35.10;55.90;;;;;;5098097;28;20036;-71
2021/07/30 09:39:33;;;;;;;14.63;8.40;;;34.90;58.90;;;;;;5097639;28;20082;-71
2021/07/30 09:42:01;;;;;;;12.07;7.30;;;34.90;58.20;;;;;;5097937;28;20410;-71
2021/07/30 09:44:28;;;;;;;9.88;8.43;;;34.90;57.70;;;;;;5097851;28;20370;-72
2021/07/30 09:47:21;;;;;;;12.27;7.32;;;35.10;55.40;;;;;;5097612;28;20024;-71
2021/07/30 09:49:47;;;;;;;9.60;6.93;;;35.40;56.50;;;;;;5097505;28;20048;-71
2021/07/30 09:52:22;;;;;;;11.65;7.03;;;35.60;56.60;;;;;;5097831;28;20056;-71
2021/07/30 09:54:56;;;;;;;9.43;7.15;;;35.60;55.00;;;;;;5097837;28;20032;-71
2021/07/30 09:57:27;;;;;;;10.77;7.13;;;35.30;55.20;;;;;;5097741;28;20023;-71
2021/07/30 09:59:58;;;;;;;11.05;8.38;;;35.10;54.80;;;;;;5097660;28;20311;-72
2021/07/30 10:02:27;;;;;;;9.40;6.45;;;35.10;56.40;;;;;;5097625;28;20035;-71
2021/07/30 10:04:53;;;;;;;12.38;7.00;;;35.30;56.70;;;;;;5097512;28;20042;-71
2021/07/30 10:07:22;;;;;;;10.52;6.63;;;35.50;56.10;;;;;;5097247;28;20480;-71
2021/07/30 10:09:57;;;;;;;9.77;6.97;;;35.20;56.90;;;;;;5097460;28;20040;-71
2021/07/30 10:12:24;;;;;;;9.98;7.45;;;35.40;56.00;;;;;;5097221;28;20442;-71
2021/07/30 10:14:51;;;;;;;10.15;6.60;;;35.30;54.00;;;;;;5097439;28;20028;-71
2021/07/30 10:17:30;;;;;;;9.75;7.03;;;35.30;57.40;;;;;;5097389;28;20032;-71
2021/07/30 10:20:01;;;;;;;10.27;5.97;;;35.30;55.00;;;;;;5106011;28;20327;-71
2021/07/30 10:22:41;;;;;;;10.73;6.43;;;35.50;56.00;;;;;;5117321;28;20035;-71
2021/07/30 10:25:11;;;;;;;12.00;7.10;;;35.60;57.40;;;;;;5117603;28;20023;-72
2021/07/30 10:27:41;;;;;;;12.88;7.28;;;35.70;56.90;;;;;;5117271;28;20434;-71
2021/07/30 10:30:12;;;;;;;11.15;7.18;;;35.50;55.10;;;;;;5117212;28;20469;-71
2021/07/30 10:32:50;;;;;;;10.10;7.97;;;35.50;58.10;;;;;;5117600;28;20367;-71
2021/07/30 10:35:27;;;;;;;12.50;7.30;;;35.50;55.50;;;;;;5117497;28;20077;-71
2021/07/30 10:38:19;;;;;;;11.60;7.93;;;35.40;58.00;;;;;;5117509;28;20036;-71
2021/07/30 10:41:08;;;;;;;10.57;7.25;;;35.30;57.30;;;;;;5117190;28;20063;-71
2021/07/30 10:43:49;;;;;;;13.80;8.60;;;33.90;60.00;;;;;;5101767;28;20031;-71
2021/07/30 10:46:24;;;;;;;10.73;8.23;;;33.70;59.00;;;;;;5120829;28;20030;-71
2021/07/30 10:48:54;;;;;;;12.25;7.55;;;33.60;60.20;;;;;;5124227;28;20051;-71
2021/07/30 10:51:20;;;;;;;11.45;8.93;;;33.30;62.30;;;;;;5123860;28;20024;-71
2021/07/30 10:54:03;;;;;;;8.93;7.38;;;32.70;61.30;;;;;;5124196;28;20035;-71
2021/07/30 10:56:29;;;;;;;9.55;8.18;;;32.00;63.90;;;;;;5124207;28;20030;-71
2021/07/30 10:58:58;;;;;;;11.00;8.48;;;31.40;63.80;;;;;;5124079;28;20035;-71
2021/07/30 11:01:43;;;;;;;12.60;8.05;;;31.00;65.50;;;;;;5124129;28;20342;-71
2021/07/30 11:04:12;;;;;;;10.50;8.50;;;30.60;65.30;;;;;;5123663;28;20070;-71
2021/07/30 11:06:44;;;;;;;11.02;8.40;;;30.10;69.10;;;;;;5124075;28;20020;-71
2021/07/30 11:09:16;;;;;;;13.85;8.40;;;30.60;69.30;;;;;;5123568;28;20029;-71
2021/07/30 11:12:03;;;;;;;11.07;8.25;;;30.90;66.80;;;;;;5124069;28;20092;-71
2021/07/30 11:14:41;;;;;;;9.80;8.32;;;30.90;67.60;;;;;;5123638;28;20445;-71
2021/07/30 11:17:09;;;;;;;14.05;8.90;;;31.00;66.00;;;;;;5123620;28;20446;-71
2021/07/30 11:19:35;;;;;;;11.98;8.95;;;30.70;67.60;;;;;;5123845;28;20366;-71
2021/07/30 11:22:03;;;;;;;10.98;8.50;;;30.90;67.30;;;;;;5123678;28;20027;-71
2021/07/30 11:24:29;;;;;;;14.13;9.32;;;30.90;66.70;;;;;;5123821;28;20035;-71
2021/07/30 11:26:55;;;;;;;9.23;8.30;;;30.50;67.40;;;;;;5123877;28;20303;-71
2021/07/30 11:29:23;;;;;;;10.75;9.55;;;30.80;70.20;;;;;;5123724;28;20024;-71
2021/07/30 11:32:06;;;;;;;11.50;7.97;;;30.90;64.30;;;;;;5123829;28;20020;-72
2021/07/30 11:34:36;;;;;;;9.20;7.63;;;31.00;63.90;;;;;;5123476;28;20031;-71
2021/07/30 11:37:04;;;;;;;13.90;8.45;;;31.30;67.70;;;;;;5123759;28;20024;-71
2021/07/30 11:39:32;;;;;;;13.13;8.40;;;31.40;66.30;;;;;;5123285;28;20060;-71
2021/07/30 11:41:58;;;;;;;9.55;8.20;;;31.30;63.80;;;;;;5123453;28;20066;-71
2021/07/30 11:44:24;;;;;;;10.30;8.38;;;31.00;65.10;;;;;;5123284;28;20047;-71
2021/07/30 11:46:57;;;;;;;11.88;8.23;;;31.30;68.50;;;;;;5123411;28;20035;-71
2021/07/30 11:49:38;;;;;;;12.40;9.00;;;31.60;66.30;;;;;;5123594;28;20048;-71
2021/07/30 11:52:05;;;;;;;11.95;8.75;;;31.90;67.70;;;;;;5123340;28;20020;-71
2021/07/30 11:54:32;;;;;;;10.10;8.15;;;32.00;63.50;;;;;;5123626;28;20028;-71
2021/07/30 11:56:58;;;;;;;12.35;9.23;;;31.70;64.90;;;;;;5122470;28;20023;-71
2021/07/30 11:59:24;;;;;;;13.07;8.32;;;31.00;68.60;;;;;;5119762;28;20088;-71
2021/07/30 12:02:06;;;;;;;13.35;9.60;;;30.80;68.10;;;;;;5120369;28;20033;-71
2021/07/30 12:04:33;;;;;;;11.02;9.38;;;30.30;68.20;;;;;;5119881;28;20040;-71
2021/07/30 12:07:20;;;;;;;13.02;9.77;;;30.60;68.40;;;;;;5120285;28;20077;-71
2021/07/30 12:09:49;;;;;;;12.52;9.68;;;31.40;66.70;;;;;;5117382;28;20044;-71
2021/07/30 12:12:16;;;;;;;12.60;8.65;;;31.50;64.90;;;;;;5120166;28;20357;-71
2021/07/30 12:14:52;;;;;;;8.93;7.95;;;31.20;69.80;;;;;;5120075;28;20028;-71
2021/07/30 12:17:20;;;;;;;8.60;7.57;;;31.20;67.90;;;;;;5119750;28;20102;-71
2021/07/30 12:20:00;;;;;;;13.70;8.00;;;31.00;67.90;;;;;;5119927;28;20301;-71
2021/07/30 12:22:43;;;;;;;11.45;8.90;;;30.70;69.30;;;;;;5119987;28;20095;-71
2021/07/30 12:25:32;;;;;;;15.32;8.75;;;30.50;67.50;;;;;;5119484;28;20023;-71
2021/07/30 12:28:09;;;;;;;12.15;8.95;;;30.30;69.70;;;;;;5119862;28;20342;-71
2021/07/30 12:30:35;;;;;;;13.48;8.75;;;30.00;68.30;;;;;;5119412;28;20028;-71
2021/07/30 12:33:01;;;;;;;15.80;9.55;;;29.90;71.90;;;;;;5119785;28;20046;-71
2021/07/30 12:35:34;;;;;;;14.60;9.80;;;29.80;69.70;;;;;;5119678;28;20028;-71
2021/07/30 12:38:07;;;;;;;13.80;9.90;;;29.70;68.70;;;;;;5119253;28;20081;-71
2021/07/30 12:40:38;;;;;;;13.65;9.77;;;29.70;70.70;;;;;;5119153;28;20131;-71
2021/07/30 12:43:18;;;;;;;14.15;10.13;;;29.70;70.80;;;;;;5119538;28;20072;-71
2021/07/30 12:45:51;;;;;;;9.98;8.52;;;29.80;71.20;;;;;;5119210;28;20406;-71
2021/07/30 12:48:19;;;;;;;11.05;9.07;;;29.70;70.40;;;;;;5119348;28;20192;-71